createdAt,value
2018-09-23T00:00:19.013Z,12.13
2018-09-23T00:02:11.997Z,12.18
2018-09-23T00:03:12.056Z,12.17
2018-09-23T00:05:05.050Z,12.21
2018-09-23T00:06:05.099Z,12.22
2018-09-23T00:07:58.093Z,12.22
2018-09-23T00:08:58.146Z,12.22
2018-09-23T00:10:51.139Z,12.27
2018-09-23T00:11:51.198Z,12.25
2018-09-23T00:13:44.190Z,12.21
2018-09-23T00:14:44.242Z,12.18
2018-09-23T00:16:37.221Z,12.21
2018-09-23T00:17:37.283Z,12.22
2018-09-23T00:19:30.274Z,12.24
2018-09-23T00:20:30.323Z,12.29
2018-09-23T00:22:23.381Z,12.32
2018-09-23T00:23:23.369Z,12.22
2018-09-23T00:25:16.357Z,12.21
2018-09-23T00:26:16.408Z,12.27
2018-09-23T00:28:09.393Z,12.24
2018-09-23T00:29:09.451Z,12.22
2018-09-23T00:31:02.446Z,12.22
2018-09-23T00:32:02.499Z,12.27
2018-09-23T00:33:55.494Z,12.27
2018-09-23T00:34:55.544Z,12.29
2018-09-23T00:36:48.529Z,12.27
2018-09-23T00:37:48.588Z,12.27
2018-09-23T00:39:41.584Z,12.28
2018-09-23T00:40:41.640Z,12.28
2018-09-23T00:42:34.622Z,12.24
2018-09-23T00:43:34.681Z,12.29
2018-09-23T00:45:27.671Z,12.29
2018-09-23T00:46:27.721Z,12.27
2018-09-23T00:48:20.709Z,12.29
2018-09-23T00:49:20.768Z,12.32
2018-09-23T00:51:13.760Z,12.31
2018-09-23T00:52:13.811Z,12.27
2018-09-23T00:54:06.797Z,12.24
2018-09-23T00:55:06.852Z,12.21
2018-09-23T00:56:59.841Z,12.22
2018-09-23T00:57:59.896Z,12.22
2018-09-23T00:59:52.887Z,12.22
2018-09-23T01:00:52.936Z,12.20
2018-09-23T01:02:45.920Z,12.21
2018-09-23T01:03:45.984Z,12.22
2018-09-23T01:05:38.974Z,12.18
2018-09-23T01:06:39.028Z,12.20
2018-09-23T01:08:32.008Z,12.31
2018-09-23T01:09:32.066Z,12.29
2018-09-23T01:11:25.057Z,12.24
2018-09-23T01:12:25.110Z,12.24
2018-09-23T01:14:18.096Z,12.35
2018-09-23T01:15:18.154Z,12.27
2018-09-23T01:17:11.152Z,12.27
2018-09-23T01:18:11.199Z,12.28
2018-09-23T01:20:04.189Z,12.18
2018-09-23T01:21:04.241Z,12.24
2018-09-23T01:22:57.228Z,12.22
2018-09-23T01:23:57.284Z,12.22
2018-09-23T01:25:50.277Z,12.22
2018-09-23T01:26:50.338Z,12.21
2018-09-23T01:28:43.314Z,12.24
2018-09-23T01:29:43.372Z,12.25
2018-09-23T01:31:36.366Z,12.15
2018-09-23T01:32:36.416Z,12.17
2018-09-23T01:34:29.399Z,12.24
2018-09-23T01:35:29.456Z,12.22
2018-09-23T01:37:22.449Z,12.17
2018-09-23T01:38:22.503Z,12.20
2018-09-23T01:40:15.486Z,12.24
2018-09-23T01:41:15.543Z,12.21
2018-09-23T01:43:08.536Z,12.22
2018-09-23T01:44:08.588Z,12.06
2018-09-23T01:46:01.574Z,12.12
2018-09-23T01:47:01.643Z,12.15
2018-09-23T01:48:54.615Z,12.07
2018-09-23T01:49:54.673Z,12.17
2018-09-23T01:51:47.667Z,12.09
2018-09-23T01:52:47.717Z,12.12
2018-09-23T01:54:40.700Z,12.12
2018-09-23T01:55:40.759Z,12.07
2018-09-23T01:57:33.753Z,12.09
2018-09-23T01:58:33.804Z,12.13
2018-09-23T02:00:26.785Z,12.06
2018-09-23T02:01:26.844Z,12.12
2018-09-23T02:03:19.842Z,12.09
2018-09-23T02:04:19.884Z,12.06
2018-09-23T02:06:12.870Z,12.13
2018-09-23T02:07:12.928Z,12.04
2018-09-23T02:09:05.920Z,12.07
2018-09-23T02:10:05.973Z,12.10
2018-09-23T02:11:58.963Z,12.06
2018-09-23T02:12:59.016Z,12.00
2018-09-23T02:14:51.998Z,12.02
2018-09-23T02:15:52.062Z,11.97
2018-09-23T02:17:45.054Z,12.03
2018-09-23T02:18:45.107Z,12.10
2018-09-23T02:20:38.101Z,12.00
2018-09-23T02:21:38.160Z,12.12
2018-09-23T02:23:31.158Z,12.06
2018-09-23T02:24:31.200Z,12.10
2018-09-23T02:26:24.183Z,12.07
2018-09-23T02:27:24.242Z,12.02
2018-09-23T02:29:17.235Z,12.07
2018-09-23T02:30:17.286Z,12.17
2018-09-23T02:32:10.283Z,12.00
2018-09-23T02:33:10.334Z,11.97
2018-09-23T02:35:03.332Z,11.97
2018-09-23T02:36:03.384Z,12.00
2018-09-23T02:37:56.377Z,12.04
2018-09-23T02:38:56.427Z,12.00
2018-09-23T02:40:49.412Z,12.06
2018-09-23T02:41:49.481Z,12.02
2018-09-23T02:43:42.460Z,12.06
2018-09-23T02:44:42.513Z,12.07
2018-09-23T02:46:35.536Z,12.04
2018-09-23T02:47:35.596Z,11.97
2018-09-23T02:49:28.589Z,12.04
2018-09-23T02:50:28.637Z,12.03
2018-09-23T02:52:21.633Z,12.06
2018-09-23T02:53:21.711Z,12.03
2018-09-23T02:55:14.679Z,12.00
2018-09-23T02:56:14.728Z,11.91
2018-09-23T02:58:07.717Z,12.02
2018-09-23T02:59:07.771Z,12.04
2018-09-23T03:01:00.753Z,12.04
2018-09-23T03:02:00.814Z,12.03
2018-09-23T03:03:53.857Z,12.03
2018-09-23T03:04:53.859Z,12.06
2018-09-23T03:06:46.840Z,12.04
2018-09-23T03:07:46.922Z,12.07
2018-09-23T03:09:39.895Z,12.04
2018-09-23T03:10:39.943Z,12.04
2018-09-23T03:12:32.928Z,12.02
2018-09-23T03:13:32.986Z,11.99
2018-09-23T03:15:25.998Z,11.91
2018-09-23T03:16:26.051Z,12.00
2018-09-23T03:18:19.057Z,11.94
2018-09-23T03:19:19.097Z,11.95
2018-09-23T03:21:12.094Z,11.99
2018-09-23T03:22:12.143Z,11.95
2018-09-23T03:24:05.144Z,12.03
2018-09-23T03:25:05.182Z,11.95
2018-09-23T03:26:58.164Z,11.88
2018-09-23T03:27:58.225Z,11.95
2018-09-23T03:29:51.219Z,11.97
2018-09-23T03:30:51.267Z,11.90
2018-09-23T03:32:44.250Z,11.95
2018-09-23T03:33:44.307Z,11.94
2018-09-23T03:35:37.312Z,11.94
2018-09-23T03:36:37.353Z,11.91
2018-09-23T03:38:30.338Z,11.91
2018-09-23T03:39:30.412Z,11.91
2018-09-23T03:41:23.392Z,11.86
2018-09-23T03:42:23.445Z,11.90
2018-09-23T03:44:16.938Z,11.91
2018-09-23T03:45:16.995Z,11.94
2018-09-23T03:47:09.987Z,11.90
2018-09-23T03:48:10.038Z,11.80
2018-09-23T03:50:03.031Z,11.83
2018-09-23T03:51:03.079Z,11.81
2018-09-23T03:52:56.063Z,11.84
2018-09-23T03:53:56.125Z,11.84
2018-09-23T03:55:49.123Z,11.77
2018-09-23T03:56:49.168Z,11.73
2018-09-23T03:58:42.153Z,11.73
2018-09-23T03:59:42.249Z,11.72
2018-09-23T04:01:35.211Z,11.75
2018-09-23T04:02:35.255Z,11.73
2018-09-23T04:04:28.237Z,11.75
2018-09-23T04:05:28.296Z,11.75
2018-09-23T04:07:21.288Z,11.69
2018-09-23T04:08:21.341Z,11.69
2018-09-23T04:10:14.338Z,11.80
2018-09-23T04:11:14.379Z,11.72
2018-09-23T04:13:07.359Z,11.73
2018-09-23T04:14:07.419Z,11.77
2018-09-23T04:16:00.412Z,11.70
2018-09-23T04:17:00.465Z,11.80
2018-09-23T04:18:53.447Z,11.72
2018-09-23T04:19:53.506Z,11.77
2018-09-23T04:21:46.499Z,11.73
2018-09-23T04:22:46.549Z,11.75
2018-09-23T04:24:39.530Z,11.73
2018-09-23T04:25:39.590Z,11.77
2018-09-23T04:27:32.581Z,11.77
2018-09-23T04:28:32.629Z,11.77
2018-09-23T04:30:25.624Z,11.70
2018-09-23T04:31:25.688Z,11.78
2018-09-23T04:33:18.675Z,11.88
2018-09-23T04:34:18.725Z,11.80
2018-09-23T04:36:11.718Z,11.88
2018-09-23T04:37:11.771Z,11.84
2018-09-23T04:39:04.757Z,11.94
2018-09-23T04:40:04.816Z,11.91
2018-09-23T04:41:57.809Z,12.06
2018-09-23T04:42:57.861Z,11.90
2018-09-23T04:44:51.414Z,11.91
2018-09-23T04:45:51.416Z,11.94
2018-09-23T04:47:44.412Z,11.95
2018-09-23T04:48:44.465Z,11.99
2018-09-23T04:50:37.448Z,11.95
2018-09-23T04:51:37.507Z,11.90
2018-09-23T04:53:30.505Z,11.95
2018-09-23T04:54:30.551Z,11.99
2018-09-23T04:56:23.535Z,12.03
2018-09-23T04:57:23.591Z,12.07
2018-09-23T04:59:16.585Z,12.03
2018-09-23T05:00:16.638Z,12.04
2018-09-23T05:02:09.632Z,11.90
2018-09-23T05:03:09.681Z,12.04
2018-09-23T05:05:02.666Z,12.00
2018-09-23T05:06:02.726Z,11.95
2018-09-23T05:07:55.726Z,11.94
2018-09-23T05:08:55.772Z,11.90
2018-09-23T05:10:48.749Z,11.94
2018-09-23T05:11:48.809Z,11.91
2018-09-23T05:13:41.801Z,11.83
2018-09-23T05:14:41.850Z,11.84
2018-09-23T05:16:34.836Z,11.91
2018-09-23T05:17:34.896Z,11.87
2018-09-23T05:19:27.891Z,11.94
2018-09-23T05:20:27.939Z,11.95
2018-09-23T05:22:20.923Z,11.94
2018-09-23T05:23:20.983Z,12.03
2018-09-23T05:25:13.974Z,12.03
2018-09-23T05:26:14.025Z,12.00
2018-09-23T05:28:07.017Z,12.12
2018-09-23T05:29:07.073Z,12.04
2018-09-23T05:31:00.073Z,12.07
2018-09-23T05:32:00.116Z,12.10
2018-09-23T05:33:53.112Z,12.09
2018-09-23T05:34:53.160Z,12.04
2018-09-23T05:36:46.149Z,12.03
2018-09-23T05:37:46.205Z,12.09
2018-09-23T05:39:39.198Z,12.06
2018-09-23T05:40:39.262Z,12.00
2018-09-23T05:42:32.240Z,11.95
2018-09-23T05:43:32.294Z,11.91
2018-09-23T05:45:25.796Z,11.97
2018-09-23T05:46:25.846Z,12.07
2018-09-23T05:48:18.846Z,12.02
2018-09-23T05:49:18.889Z,11.91
2018-09-23T05:51:11.871Z,11.94
2018-09-23T05:52:11.931Z,11.91
2018-09-23T05:54:04.926Z,12.00
2018-09-23T05:55:04.982Z,11.97
2018-09-23T05:56:57.963Z,11.90
2018-09-23T05:57:58.024Z,12.04
2018-09-23T05:59:51.015Z,12.00
2018-09-23T06:00:51.065Z,12.03
2018-09-23T06:02:44.049Z,12.03
2018-09-23T06:03:44.108Z,12.06
2018-09-23T06:05:37.100Z,12.07
2018-09-23T06:06:37.153Z,12.17
2018-09-23T06:08:30.133Z,12.10
2018-09-23T06:09:30.192Z,12.10
2018-09-23T06:11:23.182Z,12.20
2018-09-23T06:12:23.235Z,12.22
2018-09-23T06:14:16.227Z,12.27
2018-09-23T06:15:16.277Z,12.28
2018-09-23T06:17:09.260Z,12.37
2018-09-23T06:18:09.320Z,12.40
2018-09-23T06:20:02.311Z,12.40
2018-09-23T06:21:02.363Z,12.40
2018-09-23T06:22:55.355Z,12.42
2018-09-23T06:23:55.411Z,12.37
2018-09-23T06:25:48.404Z,12.42
2018-09-23T06:26:48.457Z,12.42
2018-09-23T06:28:41.440Z,12.40
2018-09-23T06:29:41.499Z,12.45
2018-09-23T06:31:34.484Z,12.39
2018-09-23T06:32:34.536Z,12.40
2018-09-23T06:34:27.520Z,12.50
2018-09-23T06:35:27.580Z,12.55
2018-09-23T06:37:20.572Z,12.53
2018-09-23T06:38:20.624Z,12.57
2018-09-23T06:40:13.617Z,12.47
2018-09-23T06:41:13.666Z,12.46
2018-09-23T06:43:06.670Z,12.45
2018-09-23T06:44:06.710Z,12.45
2018-09-23T06:45:59.705Z,12.45
2018-09-23T06:46:59.759Z,12.61
2018-09-23T06:48:52.746Z,12.58
2018-09-23T06:49:52.801Z,12.64
2018-09-23T06:51:45.794Z,12.67
2018-09-23T06:52:45.849Z,12.61
2018-09-23T06:54:38.897Z,12.60
2018-09-23T06:55:39.035Z,12.62
2018-09-23T06:57:31.954Z,12.60
2018-09-23T06:58:32.001Z,12.68
2018-09-23T07:00:25.005Z,12.72
2018-09-23T07:01:25.046Z,12.73
2018-09-23T07:03:18.032Z,12.70
2018-09-23T07:04:18.088Z,12.72
2018-09-23T07:06:11.082Z,12.76
2018-09-23T07:07:11.136Z,12.76
2018-09-23T07:09:04.129Z,12.76
2018-09-23T07:10:04.176Z,12.75
2018-09-23T07:11:57.168Z,12.90
2018-09-23T07:12:57.221Z,12.86
2018-09-23T07:14:50.203Z,12.90
2018-09-23T07:15:50.266Z,12.91
2018-09-23T07:17:43.255Z,12.90
2018-09-23T07:18:43.308Z,12.91
2018-09-23T07:20:36.291Z,12.83
2018-09-23T07:21:36.352Z,12.90
2018-09-23T07:23:29.345Z,12.90
2018-09-23T07:24:29.397Z,12.87
2018-09-23T07:26:22.392Z,12.87
2018-09-23T07:27:22.445Z,12.87
2018-09-23T07:29:15.433Z,12.79
2018-09-23T07:30:15.488Z,12.87
2018-09-23T07:32:08.480Z,12.97
2018-09-23T07:33:08.531Z,12.91
2018-09-23T07:35:01.518Z,12.94
2018-09-23T07:36:01.578Z,12.91
2018-09-23T07:37:54.570Z,12.93
2018-09-23T07:38:54.624Z,12.95
2018-09-23T07:40:47.607Z,12.98
2018-09-23T07:41:47.667Z,12.97
2018-09-23T07:43:40.663Z,12.94
2018-09-23T07:44:40.721Z,12.90
2018-09-23T07:46:33.703Z,13.00
2018-09-23T07:47:33.763Z,13.00
2018-09-23T07:49:26.759Z,13.04
2018-09-23T07:50:26.813Z,13.20
2018-09-23T07:52:19.804Z,13.05
2018-09-23T07:53:19.855Z,13.08
2018-09-23T07:55:12.844Z,13.19
2018-09-23T07:56:12.903Z,13.12
2018-09-23T07:58:05.894Z,13.27
2018-09-23T07:59:05.949Z,13.39
2018-09-23T08:00:58.931Z,13.42
2018-09-23T08:01:58.994Z,13.42
2018-09-23T08:03:51.982Z,13.49
2018-09-23T08:04:52.036Z,13.53
2018-09-23T08:06:45.024Z,13.52
2018-09-23T08:07:45.080Z,13.47
2018-09-23T08:09:38.081Z,13.47
2018-09-23T08:10:38.140Z,13.44
2018-09-23T08:12:31.199Z,13.22
2018-09-23T08:13:31.374Z,13.30
2018-09-23T08:15:24.175Z,13.27
2018-09-23T08:16:24.230Z,13.30
2018-09-23T08:18:17.240Z,13.27
2018-09-23T08:19:17.326Z,13.27
2018-09-23T08:21:10.267Z,13.38
2018-09-23T08:22:10.323Z,13.41
2018-09-23T08:24:03.317Z,13.38
2018-09-23T08:25:03.426Z,13.49
2018-09-23T08:26:56.352Z,13.50
2018-09-23T08:27:56.412Z,13.56
2018-09-23T08:29:49.411Z,13.46
2018-09-23T08:30:49.458Z,13.50
2018-09-23T08:32:42.440Z,13.53
2018-09-23T08:33:42.498Z,13.54
2018-09-23T08:35:35.494Z,13.49
2018-09-23T08:36:35.547Z,13.49
2018-09-23T08:38:28.529Z,13.60
2018-09-23T08:39:28.587Z,13.57
2018-09-23T08:41:21.579Z,13.63
2018-09-23T08:42:21.635Z,13.60
2018-09-23T08:44:14.622Z,13.63
2018-09-23T08:45:14.682Z,13.54
2018-09-23T08:47:07.662Z,13.38
2018-09-23T08:48:07.792Z,13.39
2018-09-23T08:50:00.720Z,13.41
2018-09-23T08:51:00.776Z,13.46
2018-09-23T08:52:53.777Z,13.41
2018-09-23T08:53:53.843Z,13.25
2018-09-23T08:55:46.825Z,13.42
2018-09-23T08:56:46.884Z,13.42
2018-09-23T08:58:39.868Z,13.53
2018-09-23T08:59:39.929Z,13.44
2018-09-23T09:01:32.914Z,13.41
2018-09-23T09:02:32.968Z,13.42
2018-09-23T09:04:25.970Z,13.33
2018-09-23T09:05:26.035Z,13.49
2018-09-23T09:07:19.032Z,13.46
2018-09-23T09:08:19.080Z,13.49
2018-09-23T09:10:12.076Z,13.28
2018-09-23T09:11:12.139Z,13.41
2018-09-23T09:13:05.140Z,13.39
2018-09-23T09:14:05.189Z,13.41
2018-09-23T09:15:58.200Z,13.25
2018-09-23T09:16:58.255Z,13.30
2018-09-23T09:18:51.334Z,13.50
2018-09-23T09:19:51.310Z,13.49
2018-09-23T09:21:44.326Z,13.42
2018-09-23T09:22:44.361Z,13.50
2018-09-23T09:24:37.340Z,13.27
2018-09-23T09:25:37.400Z,13.30
2018-09-23T09:27:30.396Z,13.38
2018-09-23T09:28:30.451Z,13.49
2018-09-23T09:30:23.438Z,13.44
2018-09-23T09:31:23.496Z,13.44
2018-09-23T09:33:16.505Z,13.49
2018-09-23T09:34:16.551Z,13.46
2018-09-23T09:36:09.550Z,13.44
2018-09-23T09:37:09.596Z,13.52
2018-09-23T09:39:02.580Z,13.54
2018-09-23T09:40:02.643Z,13.54
2018-09-23T09:41:55.634Z,13.53
2018-09-23T09:42:55.687Z,13.56
2018-09-23T09:44:48.673Z,13.39
2018-09-23T09:45:48.729Z,13.38
2018-09-23T09:47:41.725Z,13.18
2018-09-23T09:48:41.772Z,13.30
2018-09-23T09:50:34.755Z,13.28
2018-09-23T09:51:34.814Z,13.16
2018-09-23T09:53:27.844Z,13.22
2018-09-23T09:54:27.855Z,13.30
2018-09-23T09:56:20.842Z,13.18
2018-09-23T09:57:20.898Z,13.18
2018-09-23T09:59:13.894Z,13.23
2018-09-23T10:00:13.941Z,13.22
2018-09-23T10:02:06.923Z,13.20
2018-09-23T10:03:06.982Z,13.30
2018-09-23T10:05:00.481Z,13.35
2018-09-23T10:06:00.534Z,13.33
2018-09-23T10:07:53.528Z,13.20
2018-09-23T10:08:53.584Z,13.20
2018-09-23T10:10:46.568Z,13.09
2018-09-23T10:11:46.628Z,13.16
2018-09-23T10:13:39.617Z,13.19
2018-09-23T10:14:39.670Z,13.05
2018-09-23T10:16:32.650Z,13.03
2018-09-23T10:17:32.853Z,12.95
2018-09-23T10:19:25.706Z,12.97
2018-09-23T10:20:25.766Z,12.98
2018-09-23T10:22:18.741Z,12.97
2018-09-23T10:23:18.959Z,12.98
2018-09-23T10:25:11.794Z,12.94
2018-09-23T10:26:11.845Z,12.86
2018-09-23T10:28:04.850Z,12.86
2018-09-23T10:29:04.979Z,12.85
2018-09-23T10:30:57.896Z,12.85
2018-09-23T10:31:57.946Z,12.83
2018-09-23T10:33:50.940Z,12.87
2018-09-23T10:34:50.992Z,12.83
2018-09-23T10:36:43.973Z,12.72
2018-09-23T10:37:44.036Z,12.75
2018-09-23T10:39:37.021Z,12.72
2018-09-23T10:40:37.074Z,12.78
2018-09-23T10:42:30.058Z,12.64
2018-09-23T10:43:30.118Z,12.61
2018-09-23T10:45:23.110Z,12.64
2018-09-23T10:46:23.160Z,12.70
2018-09-23T10:48:16.139Z,12.62
2018-09-23T10:49:16.199Z,12.55
2018-09-23T10:51:09.188Z,12.53
2018-09-23T10:52:09.238Z,12.57
2018-09-23T10:54:02.244Z,12.53
2018-09-23T10:55:02.282Z,12.53
2018-09-23T10:56:55.266Z,12.64
2018-09-23T10:57:55.327Z,12.55
2018-09-23T10:59:48.315Z,12.57
2018-09-23T11:00:48.367Z,12.49
2018-09-23T11:02:41.349Z,12.54
2018-09-23T11:03:41.434Z,12.49
2018-09-23T11:05:34.924Z,12.54
2018-09-23T11:06:34.963Z,12.47
2018-09-23T11:08:27.946Z,12.53
2018-09-23T11:09:28.004Z,12.53
2018-09-23T11:11:21.000Z,12.57
2018-09-23T11:12:21.125Z,12.53
2018-09-23T11:14:14.032Z,12.42
2018-09-23T11:15:14.107Z,12.50
2018-09-23T11:17:07.087Z,12.39
2018-09-23T11:18:07.359Z,12.46
2018-09-23T11:20:00.136Z,12.40
2018-09-23T11:21:00.172Z,12.40
2018-09-23T11:22:53.157Z,12.45
2018-09-23T11:23:53.216Z,12.45
2018-09-23T11:25:46.202Z,12.49
2018-09-23T11:26:46.254Z,12.47
2018-09-23T11:28:39.237Z,12.42
2018-09-23T11:29:39.299Z,12.43
2018-09-23T11:31:32.289Z,12.39
2018-09-23T11:32:32.341Z,12.36
2018-09-23T11:34:25.321Z,12.32
2018-09-23T11:35:25.381Z,12.31
2018-09-23T11:37:18.397Z,12.39
2018-09-23T11:38:18.455Z,12.40
2018-09-23T11:40:11.943Z,12.43
2018-09-23T11:41:12.006Z,12.36
2018-09-23T11:43:04.996Z,12.25
2018-09-23T11:44:05.043Z,12.25
2018-09-23T11:45:58.037Z,12.17
2018-09-23T11:46:58.085Z,12.12
2018-09-23T11:48:51.072Z,12.18
2018-09-23T11:49:51.130Z,12.18
2018-09-23T11:51:44.129Z,12.32
2018-09-23T11:52:44.224Z,12.25
2018-09-23T11:54:37.160Z,12.27
2018-09-23T11:55:37.238Z,12.21
2018-09-23T11:57:30.226Z,12.24
2018-09-23T11:58:30.266Z,12.15
2018-09-23T12:00:23.248Z,12.12
2018-09-23T12:01:23.307Z,12.12
2018-09-23T12:03:16.334Z,12.10
2018-09-23T12:04:16.383Z,12.07
2018-09-23T12:06:09.337Z,11.99
2018-09-23T12:07:09.396Z,12.13
2018-09-23T12:09:02.389Z,12.12
2018-09-23T12:10:02.441Z,12.13
2018-09-23T12:11:55.435Z,11.99
2018-09-23T12:12:55.479Z,12.07
2018-09-23T12:14:48.468Z,12.07
2018-09-23T12:15:48.583Z,12.12
2018-09-23T12:17:41.513Z,12.04
2018-09-23T12:18:41.563Z,11.91
2018-09-23T12:20:34.548Z,11.97
2018-09-23T12:21:34.606Z,11.94
2018-09-23T12:23:27.595Z,12.03
2018-09-23T12:24:27.649Z,12.00
2018-09-23T12:26:20.639Z,12.09
2018-09-23T12:27:20.688Z,12.09
2018-09-23T12:29:13.685Z,12.10
2018-09-23T12:30:13.999Z,12.13
2018-09-23T12:32:06.736Z,12.03
2018-09-23T12:33:06.802Z,12.07
2018-09-23T12:34:59.754Z,12.00
2018-09-23T12:35:59.815Z,12.13
2018-09-23T12:37:52.809Z,11.94
2018-09-23T12:38:52.865Z,11.97
2018-09-23T12:40:45.843Z,11.86
2018-09-23T12:41:45.901Z,11.90
2018-09-23T12:43:38.897Z,11.86
2018-09-23T12:44:38.947Z,11.77
2018-09-23T12:46:31.930Z,11.77
2018-09-23T12:47:31.987Z,11.81
2018-09-23T12:49:24.977Z,11.91
2018-09-23T12:50:25.029Z,11.73
2018-09-23T12:52:18.011Z,11.65
2018-09-23T12:53:18.069Z,11.68
2018-09-23T12:55:11.055Z,11.66
2018-09-23T12:56:11.107Z,11.73
2018-09-23T12:58:04.090Z,11.77
2018-09-23T12:59:04.146Z,11.77
2018-09-23T13:00:57.132Z,11.78
2018-09-23T13:01:57.187Z,11.84
2018-09-23T13:03:50.178Z,11.80
2018-09-23T13:04:50.227Z,11.84
2018-09-23T13:06:43.209Z,11.77
2018-09-23T13:07:43.265Z,11.72
2018-09-23T13:09:36.252Z,11.69
2018-09-23T13:10:36.307Z,11.80
2018-09-23T13:12:29.288Z,11.73
2018-09-23T13:13:29.347Z,11.72
2018-09-23T13:15:22.335Z,11.90
2018-09-23T13:16:22.386Z,11.95
2018-09-23T13:18:15.483Z,11.72
2018-09-23T13:19:15.436Z,11.73
2018-09-23T13:21:08.415Z,11.65
2018-09-23T13:22:08.511Z,11.69
2018-09-23T13:24:01.451Z,11.66
2018-09-23T13:25:01.506Z,11.60
2018-09-23T13:26:54.496Z,11.70
2018-09-23T13:27:54.547Z,11.72
2018-09-23T13:29:47.531Z,11.91
2018-09-23T13:30:47.589Z,11.88
2018-09-23T13:32:40.576Z,11.84
2018-09-23T13:33:40.630Z,11.80
2018-09-23T13:35:33.610Z,11.70
2018-09-23T13:36:33.666Z,11.80
2018-09-23T13:38:26.654Z,11.80
2018-09-23T13:39:26.704Z,11.77
2018-09-23T13:41:19.697Z,11.70
2018-09-23T13:42:19.748Z,11.65
2018-09-23T13:44:12.729Z,11.57
2018-09-23T13:45:12.787Z,11.68
2018-09-23T13:47:05.777Z,11.63
2018-09-23T13:48:05.827Z,11.63
2018-09-23T13:49:58.808Z,11.66
2018-09-23T13:50:58.866Z,11.59
2018-09-23T13:52:51.858Z,11.62
2018-09-23T13:53:51.909Z,11.44
2018-09-23T13:55:44.902Z,11.45
2018-09-23T13:56:44.966Z,11.48
2018-09-23T13:58:37.949Z,11.45
2018-09-23T13:59:38.006Z,11.44
2018-09-23T14:01:30.996Z,11.30
2018-09-23T14:02:31.042Z,11.35
2018-09-23T14:04:24.029Z,11.32
2018-09-23T14:05:24.085Z,11.30
2018-09-23T14:07:17.075Z,11.40
2018-09-23T14:08:17.127Z,11.43
2018-09-23T14:10:10.107Z,11.43
2018-09-23T14:11:10.165Z,11.43
2018-09-23T14:13:03.158Z,11.44
2018-09-23T14:14:03.208Z,11.45
2018-09-23T14:15:56.187Z,11.44
2018-09-23T14:16:56.246Z,11.40
2018-09-23T14:18:49.239Z,11.29
2018-09-23T14:19:49.295Z,11.40
2018-09-23T14:21:42.777Z,11.25
2018-09-23T14:22:42.837Z,11.23
2018-09-23T14:24:35.827Z,11.25
2018-09-23T14:25:35.876Z,11.26
2018-09-23T14:27:28.859Z,11.36
2018-09-23T14:28:28.920Z,11.45
2018-09-23T14:30:21.908Z,11.37
2018-09-23T14:31:21.958Z,11.27
2018-09-23T14:33:14.941Z,11.29
2018-09-23T14:34:14.993Z,11.40
2018-09-23T14:36:07.989Z,11.27
2018-09-23T14:37:08.038Z,11.27
2018-09-23T14:39:01.019Z,11.17
2018-09-23T14:40:01.076Z,11.19
2018-09-23T14:41:54.094Z,11.19
2018-09-23T14:42:54.122Z,11.19
2018-09-23T14:44:47.109Z,11.12
2018-09-23T14:45:47.160Z,11.00
2018-09-23T14:47:40.148Z,10.96
2018-09-23T14:48:40.202Z,10.99
2018-09-23T14:50:33.189Z,10.90
2018-09-23T14:51:33.242Z,10.87
2018-09-23T14:53:26.223Z,10.92
2018-09-23T14:54:26.372Z,10.96
2018-09-23T14:56:19.265Z,10.96
2018-09-23T14:57:19.317Z,10.94
2018-09-23T14:59:12.303Z,10.97
2018-09-23T15:00:12.449Z,10.94
2018-09-23T15:02:05.412Z,10.96
2018-09-23T15:03:05.467Z,10.99
2018-09-23T15:04:58.452Z,10.97
2018-09-23T15:05:58.505Z,10.90
2018-09-23T15:07:51.487Z,10.93
2018-09-23T15:08:51.551Z,10.92
2018-09-23T15:10:44.537Z,10.89
2018-09-23T15:11:44.591Z,10.90
2018-09-23T15:13:37.616Z,10.97
2018-09-23T15:14:37.631Z,10.93
2018-09-23T15:16:30.622Z,11.11
2018-09-23T15:17:30.673Z,11.15
2018-09-23T15:19:23.661Z,11.08
2018-09-23T15:20:23.712Z,11.17
2018-09-23T15:22:16.695Z,11.08
2018-09-23T15:23:16.754Z,11.07
2018-09-23T15:25:09.756Z,11.04
2018-09-23T15:26:09.800Z,11.12
2018-09-23T15:28:02.775Z,11.05
2018-09-23T15:29:02.834Z,11.11
2018-09-23T15:30:55.826Z,11.12
2018-09-23T15:31:55.878Z,11.15
2018-09-23T15:33:48.858Z,11.07
2018-09-23T15:34:48.917Z,11.18
2018-09-23T15:36:42.415Z,11.05
2018-09-23T15:37:42.466Z,11.10
2018-09-23T15:39:35.445Z,10.96
2018-09-23T15:40:35.502Z,11.05
2018-09-23T15:42:28.567Z,11.00
2018-09-23T15:43:28.585Z,10.87
2018-09-23T15:45:21.527Z,10.90
2018-09-23T15:46:21.584Z,10.96
2018-09-23T15:48:14.569Z,10.86
2018-09-23T15:49:14.620Z,10.81
2018-09-23T15:51:07.602Z,10.93
2018-09-23T15:52:07.717Z,10.94
2018-09-23T15:54:00.656Z,10.89
2018-09-23T15:55:00.702Z,10.84
2018-09-23T15:56:53.704Z,10.92
2018-09-23T15:57:53.777Z,10.81
2018-09-23T15:59:46.725Z,10.90
2018-09-23T16:00:46.782Z,10.94
2018-09-23T16:02:39.769Z,10.92
2018-09-23T16:03:39.822Z,10.82
2018-09-23T16:05:37.815Z,10.96
2018-09-23T16:06:37.926Z,10.89
2018-09-23T16:08:30.879Z,10.87
2018-09-23T16:09:30.903Z,10.93
2018-09-23T16:11:23.882Z,11.00
2018-09-23T16:12:23.941Z,10.96
2018-09-23T16:14:16.927Z,10.97
2018-09-23T16:15:16.981Z,10.97
2018-09-23T16:17:09.962Z,11.05
2018-09-23T16:18:10.032Z,11.05
2018-09-23T16:20:03.014Z,11.12
2018-09-23T16:21:03.062Z,11.12
2018-09-23T16:22:56.053Z,11.22
2018-09-23T16:23:56.132Z,11.15
2018-09-23T16:25:49.142Z,11.18
2018-09-23T16:26:49.305Z,11.08
2018-09-23T16:28:42.153Z,11.23
2018-09-23T16:29:42.204Z,11.27
2018-09-23T16:31:35.185Z,11.27
2018-09-23T16:32:35.241Z,11.25
2018-09-23T16:34:28.234Z,11.22
2018-09-23T16:35:28.282Z,11.15
2018-09-23T16:37:21.773Z,11.08
2018-09-23T16:38:21.830Z,11.14
2018-09-23T16:40:14.860Z,11.12
2018-09-23T16:41:14.875Z,11.12
2018-09-23T16:43:07.863Z,11.10
2018-09-23T16:44:07.921Z,11.15
2018-09-23T16:46:00.915Z,11.08
2018-09-23T16:47:00.978Z,11.22
2018-09-23T16:48:53.958Z,11.18
2018-09-23T16:49:54.024Z,11.10
2018-09-23T16:51:47.054Z,11.07
2018-09-23T16:52:47.053Z,11.07
2018-09-23T16:54:40.112Z,11.14
2018-09-23T16:55:40.120Z,11.18
2018-09-23T16:57:33.101Z,11.15
2018-09-23T16:58:33.164Z,11.10
2018-09-23T17:00:26.207Z,11.08
2018-09-23T17:01:26.198Z,11.04
2018-09-23T17:03:19.179Z,11.00
2018-09-23T17:04:19.237Z,10.99
2018-09-23T17:06:12.231Z,11.05
2018-09-23T17:07:12.294Z,10.96
2018-09-23T17:09:05.276Z,10.92
2018-09-23T17:10:05.332Z,10.97
2018-09-23T17:11:58.324Z,10.92
2018-09-23T17:12:58.371Z,10.90
2018-09-23T17:14:51.357Z,10.99
2018-09-23T17:15:51.409Z,10.90
2018-09-23T17:17:44.391Z,10.94
2018-09-23T17:18:44.447Z,10.97
2018-09-23T17:20:37.441Z,10.96
2018-09-23T17:21:37.488Z,10.87
2018-09-23T17:23:30.488Z,10.89
2018-09-23T17:24:30.528Z,10.96
2018-09-23T17:26:23.520Z,10.89
2018-09-23T17:27:23.576Z,10.89
2018-09-23T17:29:16.600Z,10.93
2018-09-23T17:30:16.667Z,10.93
2018-09-23T17:32:09.646Z,10.89
2018-09-23T17:33:09.657Z,10.81
2018-09-23T17:35:02.660Z,10.84
2018-09-23T17:36:02.710Z,10.84
2018-09-23T17:37:55.697Z,10.89
2018-09-23T17:38:55.843Z,10.81
2018-09-23T17:40:48.770Z,10.82
2018-09-23T17:41:48.789Z,10.78
2018-09-23T17:43:41.768Z,10.87
2018-09-23T17:44:41.827Z,10.86
2018-09-23T17:46:34.817Z,10.82
2018-09-23T17:47:34.867Z,10.87
2018-09-23T17:49:27.846Z,10.89
2018-09-23T17:50:27.904Z,10.86
2018-09-23T17:52:20.889Z,10.84
2018-09-23T17:53:20.942Z,10.84
2018-09-23T17:55:13.924Z,10.81
2018-09-23T17:56:13.983Z,10.78
2018-09-23T17:58:08.395Z,10.89
2018-09-23T17:59:07.021Z,10.81
2018-09-23T18:01:00.002Z,10.93
2018-09-23T18:02:00.064Z,10.87
2018-09-23T18:03:53.052Z,10.89
2018-09-23T18:04:53.111Z,10.93
2018-09-23T18:06:46.105Z,10.87
2018-09-23T18:07:46.144Z,10.90
2018-09-23T18:09:39.127Z,10.94
2018-09-23T18:10:39.181Z,10.81
2018-09-23T18:12:32.193Z,10.86
2018-09-23T18:13:32.219Z,10.89
2018-09-23T18:15:25.205Z,10.90
2018-09-23T18:16:25.259Z,10.86
2018-09-23T18:18:18.246Z,10.78
2018-09-23T18:19:18.301Z,10.76
2018-09-23T18:21:11.283Z,10.81
2018-09-23T18:22:11.342Z,10.78
2018-09-23T18:24:04.332Z,10.96
2018-09-23T18:25:04.379Z,10.90
2018-09-23T18:26:57.362Z,10.84
2018-09-23T18:27:57.418Z,10.89
2018-09-23T18:29:50.453Z,10.87
2018-09-23T18:30:50.461Z,10.84
2018-09-23T18:32:43.444Z,10.86
2018-09-23T18:33:43.497Z,10.82